sensor_id;sensor_type;location;lat;lon;timestamp;pressure;altitude;pressure_sealevel;temperature
11424;BMP180;5768;51.476;7.210;2022-07-22T00:00:19;100782.00;;;20.00
11424;BMP180;5768;51.476;7.210;2022-07-22T00:03:23;100781.00;;;19.90
11424;BMP180;5768;51.476;7.210;2022-07-22T00:06:26;100785.00;;;19.90
11424;BMP180;5768;51.476;7.210;2022-07-22T00:09:28;100776.00;;;19.90
11424;BMP180;5768;51.476;7.210;2022-07-22T00:12:30;100787.00;;;19.90
11424;BMP180;5768;51.476;7.210;2022-07-22T00:15:33;100782.00;;;19.90
11424;BMP180;5768;51.476;7.210;2022-07-22T00:18:36;100782.00;;;19.90
11424;BMP180;5768;51.476;7.210;2022-07-22T00:21:39;100780.00;;;19.90
11424;BMP180;5768;51.476;7.210;2022-07-22T00:24:41;100782.00;;;19.90
11424;BMP180;5768;51.476;7.210;2022-07-22T00:27:43;100785.00;;;19.90
11424;BMP180;5768;51.476;7.210;2022-07-22T00:30:45;100768.00;;;20.00
11424;BMP180;5768;51.476;7.210;2022-07-22T00:33:48;100782.00;;;20.00
11424;BMP180;5768;51.476;7.210;2022-07-22T00:36:51;100774.00;;;20.00
11424;BMP180;5768;51.476;7.210;2022-07-22T00:39:53;100774.00;;;20.00
11424;BMP180;5768;51.476;7.210;2022-07-22T00:42:55;100780.00;;;20.00
11424;BMP180;5768;51.476;7.210;2022-07-22T00:45:57;100771.00;;;20.00
11424;BMP180;5768;51.476;7.210;2022-07-22T00:49:02;100772.00;;;20.10
11424;BMP180;5768;51.476;7.210;2022-07-22T00:52:05;100768.00;;;20.10
11424;BMP180;5768;51.476;7.210;2022-07-22T00:55:08;100767.00;;;20.00
11424;BMP180;5768;51.476;7.210;2022-07-22T00:58:11;100761.00;;;20.00
11424;BMP180;5768;51.476;7.210;2022-07-22T01:01:13;100773.00;;;20.00
11424;BMP180;5768;51.476;7.210;2022-07-22T01:04:17;100774.00;;;20.00
11424;BMP180;5768;51.476;7.210;2022-07-22T01:07:19;100770.00;;;20.00
11424;BMP180;5768;51.476;7.210;2022-07-22T01:10:21;100769.00;;;20.00
11424;BMP180;5768;51.476;7.210;2022-07-22T01:13:23;100764.00;;;19.90
11424;BMP180;5768;51.476;7.210;2022-07-22T01:16:26;100778.00;;;19.90
11424;BMP180;5768;51.476;7.210;2022-07-22T01:19:29;100782.00;;;19.90
11424;BMP180;5768;51.476;7.210;2022-07-22T01:22:33;100775.00;;;19.90
11424;BMP180;5768;51.476;7.210;2022-07-22T01:25:35;100772.00;;;19.90
11424;BMP180;5768;51.476;7.210;2022-07-22T01:28:37;100772.00;;;19.90
11424;BMP180;5768;51.476;7.210;2022-07-22T01:31:39;100773.00;;;19.90
11424;BMP180;5768;51.476;7.210;2022-07-22T01:34:41;100774.00;;;19.90
11424;BMP180;5768;51.476;7.210;2022-07-22T01:37:45;100773.00;;;19.90
11424;BMP180;5768;51.476;7.210;2022-07-22T01:40:47;100773.00;;;19.90
11424;BMP180;5768;51.476;7.210;2022-07-22T01:43:50;100772.00;;;20.00
11424;BMP180;5768;51.476;7.210;2022-07-22T01:46:52;100770.00;;;20.00
11424;BMP180;5768;51.476;7.210;2022-07-22T01:49:55;100774.00;;;20.00
11424;BMP180;5768;51.476;7.210;2022-07-22T01:52:58;100770.00;;;20.00
11424;BMP180;5768;51.476;7.210;2022-07-22T01:56:00;100777.00;;;20.00
11424;BMP180;5768;51.476;7.210;2022-07-22T01:59:03;100769.00;;;20.00
11424;BMP180;5768;51.476;7.210;2022-07-22T02:02:05;100773.00;;;20.00
11424;BMP180;5768;51.476;7.210;2022-07-22T02:05:08;100767.00;;;19.90
11424;BMP180;5768;51.476;7.210;2022-07-22T02:08:12;100765.00;;;19.90
11424;BMP180;5768;51.476;7.210;2022-07-22T02:11:14;100764.00;;;19.90
11424;BMP180;5768;51.476;7.210;2022-07-22T02:14:16;100763.00;;;19.90
11424;BMP180;5768;51.476;7.210;2022-07-22T02:17:18;100762.00;;;20.00
11424;BMP180;5768;51.476;7.210;2022-07-22T02:20:21;100770.00;;;20.00
11424;BMP180;5768;51.476;7.210;2022-07-22T02:23:24;100765.00;;;20.00
11424;BMP180;5768;51.476;7.210;2022-07-22T02:26:26;100764.00;;;20.10
11424;BMP180;5768;51.476;7.210;2022-07-22T02:29:29;100761.00;;;20.10
11424;BMP180;5768;51.476;7.210;2022-07-22T02:32:32;100765.00;;;20.10
11424;BMP180;5768;51.476;7.210;2022-07-22T02:35:34;100762.00;;;20.10
11424;BMP180;5768;51.476;7.210;2022-07-22T02:38:38;100759.00;;;20.10
11424;BMP180;5768;51.476;7.210;2022-07-22T02:41:40;100763.00;;;20.10
11424;BMP180;5768;51.476;7.210;2022-07-22T02:44:42;100760.00;;;20.20
11424;BMP180;5768;51.476;7.210;2022-07-22T02:47:47;100765.00;;;20.10
11424;BMP180;5768;51.476;7.210;2022-07-22T02:50:50;100762.00;;;20.00
11424;BMP180;5768;51.476;7.210;2022-07-22T02:53:53;100757.00;;;20.00
11424;BMP180;5768;51.476;7.210;2022-07-22T02:56:56;100760.00;;;20.10
11424;BMP180;5768;51.476;7.210;2022-07-22T02:59:58;100758.00;;;20.00
11424;BMP180;5768;51.476;7.210;2022-07-22T03:03:00;100759.00;;;20.00
11424;BMP180;5768;51.476;7.210;2022-07-22T03:06:02;100765.00;;;20.00
11424;BMP180;5768;51.476;7.210;2022-07-22T03:09:06;100764.00;;;19.90
11424;BMP180;5768;51.476;7.210;2022-07-22T03:12:08;100775.00;;;19.90
11424;BMP180;5768;51.476;7.210;2022-07-22T03:15:11;100775.00;;;19.90
11424;BMP180;5768;51.476;7.210;2022-07-22T03:18:13;100779.00;;;20.00
11424;BMP180;5768;51.476;7.210;2022-07-22T03:21:16;100777.00;;;19.90
11424;BMP180;5768;51.476;7.210;2022-07-22T03:24:19;100786.00;;;19.90
11424;BMP180;5768;51.476;7.210;2022-07-22T03:27:21;100786.00;;;19.80
11424;BMP180;5768;51.476;7.210;2022-07-22T03:30:24;100782.00;;;19.80
11424;BMP180;5768;51.476;7.210;2022-07-22T03:33:26;100781.00;;;19.80
11424;BMP180;5768;51.476;7.210;2022-07-22T03:36:29;100783.00;;;19.70
11424;BMP180;5768;51.476;7.210;2022-07-22T03:39:32;100779.00;;;19.70
11424;BMP180;5768;51.476;7.210;2022-07-22T03:42:35;100783.00;;;19.70
11424;BMP180;5768;51.476;7.210;2022-07-22T03:45:37;100780.00;;;19.80
11424;BMP180;5768;51.476;7.210;2022-07-22T03:48:39;100788.00;;;19.80
11424;BMP180;5768;51.476;7.210;2022-07-22T03:51:41;100783.00;;;19.80
11424;BMP180;5768;51.476;7.210;2022-07-22T03:54:45;100780.00;;;19.90
11424;BMP180;5768;51.476;7.210;2022-07-22T03:57:47;100781.00;;;19.90
11424;BMP180;5768;51.476;7.210;2022-07-22T04:00:50;100785.00;;;19.90
11424;BMP180;5768;51.476;7.210;2022-07-22T04:03:52;100780.00;;;19.90
11424;BMP180;5768;51.476;7.210;2022-07-22T04:06:54;100785.00;;;19.90
11424;BMP180;5768;51.476;7.210;2022-07-22T04:09:58;100785.00;;;19.90
11424;BMP180;5768;51.476;7.210;2022-07-22T04:13:06;100779.00;;;19.80
11424;BMP180;5768;51.476;7.210;2022-07-22T04:16:08;100783.00;;;19.80
11424;BMP180;5768;51.476;7.210;2022-07-22T04:19:11;100789.00;;;19.80
11424;BMP180;5768;51.476;7.210;2022-07-22T04:22:13;100785.00;;;19.80
11424;BMP180;5768;51.476;7.210;2022-07-22T04:25:17;100786.00;;;19.80
11424;BMP180;5768;51.476;7.210;2022-07-22T04:28:20;100787.00;;;19.80
11424;BMP180;5768;51.476;7.210;2022-07-22T04:31:22;100785.00;;;19.90
11424;BMP180;5768;51.476;7.210;2022-07-22T04:34:25;100785.00;;;19.90
11424;BMP180;5768;51.476;7.210;2022-07-22T04:37:27;100781.00;;;19.90
11424;BMP180;5768;51.476;7.210;2022-07-22T04:40:30;100782.00;;;19.90
11424;BMP180;5768;51.476;7.210;2022-07-22T04:43:33;100783.00;;;19.90
11424;BMP180;5768;51.476;7.210;2022-07-22T04:46:35;100771.00;;;19.90
11424;BMP180;5768;51.476;7.210;2022-07-22T04:49:38;100779.00;;;19.80
11424;BMP180;5768;51.476;7.210;2022-07-22T04:52:40;100773.00;;;19.80
11424;BMP180;5768;51.476;7.210;2022-07-22T04:55:44;100772.00;;;19.90
11424;BMP180;5768;51.476;7.210;2022-07-22T04:58:46;100769.00;;;19.90
11424;BMP180;5768;51.476;7.210;2022-07-22T05:01:49;100777.00;;;19.90
11424;BMP180;5768;51.476;7.210;2022-07-22T05:04:52;100768.00;;;20.00
11424;BMP180;5768;51.476;7.210;2022-07-22T05:07:54;100765.00;;;20.00
11424;BMP180;5768;51.476;7.210;2022-07-22T05:10:57;100768.00;;;20.10
11424;BMP180;5768;51.476;7.210;2022-07-22T05:13:59;100775.00;;;20.20
11424;BMP180;5768;51.476;7.210;2022-07-22T05:17:02;100770.00;;;20.30
11424;BMP180;5768;51.476;7.210;2022-07-22T05:20:05;100776.00;;;20.50
11424;BMP180;5768;51.476;7.210;2022-07-22T05:23:08;100782.00;;;20.60
11424;BMP180;5768;51.476;7.210;2022-07-22T05:26:11;100787.00;;;20.70
11424;BMP180;5768;51.476;7.210;2022-07-22T05:29:13;100785.00;;;20.70
11424;BMP180;5768;51.476;7.210;2022-07-22T05:32:16;100791.00;;;20.80
11424;BMP180;5768;51.476;7.210;2022-07-22T05:35:18;100802.00;;;20.90
11424;BMP180;5768;51.476;7.210;2022-07-22T05:38:21;100797.00;;;21.00
11424;BMP180;5768;51.476;7.210;2022-07-22T05:41:24;100793.00;;;21.10
11424;BMP180;5768;51.476;7.210;2022-07-22T05:44:26;100800.00;;;21.20
11424;BMP180;5768;51.476;7.210;2022-07-22T05:47:29;100797.00;;;21.20
11424;BMP180;5768;51.476;7.210;2022-07-22T05:50:31;100804.00;;;21.20
11424;BMP180;5768;51.476;7.210;2022-07-22T05:53:33;100803.00;;;21.30
11424;BMP180;5768;51.476;7.210;2022-07-22T05:56:36;100791.00;;;21.40
11424;BMP180;5768;51.476;7.210;2022-07-22T05:59:39;100796.00;;;21.40
11424;BMP180;5768;51.476;7.210;2022-07-22T06:02:42;100797.00;;;21.40
11424;BMP180;5768;51.476;7.210;2022-07-22T06:05:44;100794.00;;;21.40
11424;BMP180;5768;51.476;7.210;2022-07-22T06:08:46;100787.00;;;21.50
11424;BMP180;5768;51.476;7.210;2022-07-22T06:11:50;100788.00;;;21.60
11424;BMP180;5768;51.476;7.210;2022-07-22T06:14:52;100785.00;;;21.70
11424;BMP180;5768;51.476;7.210;2022-07-22T06:17:54;100788.00;;;21.80
11424;BMP180;5768;51.476;7.210;2022-07-22T06:20:56;100782.00;;;21.90
11424;BMP180;5768;51.476;7.210;2022-07-22T06:23:58;100793.00;;;21.90
11424;BMP180;5768;51.476;7.210;2022-07-22T06:27:02;100795.00;;;22.00
11424;BMP180;5768;51.476;7.210;2022-07-22T06:30:06;100800.00;;;22.00
11424;BMP180;5768;51.476;7.210;2022-07-22T06:33:09;100796.00;;;22.00
11424;BMP180;5768;51.476;7.210;2022-07-22T06:36:11;100803.00;;;22.10
11424;BMP180;5768;51.476;7.210;2022-07-22T06:39:15;100798.00;;;22.10
11424;BMP180;5768;51.476;7.210;2022-07-22T06:42:18;100800.00;;;22.10
11424;BMP180;5768;51.476;7.210;2022-07-22T06:45:20;100794.00;;;22.10
11424;BMP180;5768;51.476;7.210;2022-07-22T06:48:23;100796.00;;;22.20
11424;BMP180;5768;51.476;7.210;2022-07-22T06:51:25;100802.00;;;22.30
11424;BMP180;5768;51.476;7.210;2022-07-22T06:54:28;100803.00;;;22.30
11424;BMP180;5768;51.476;7.210;2022-07-22T06:57:31;100797.00;;;22.40
11424;BMP180;5768;51.476;7.210;2022-07-22T07:00:34;100795.00;;;22.40
11424;BMP180;5768;51.476;7.210;2022-07-22T07:03:36;100794.00;;;22.50
11424;BMP180;5768;51.476;7.210;2022-07-22T07:06:38;100787.00;;;22.60
11424;BMP180;5768;51.476;7.210;2022-07-22T07:09:40;100789.00;;;22.70
11424;BMP180;5768;51.476;7.210;2022-07-22T07:12:44;100787.00;;;22.90
11424;BMP180;5768;51.476;7.210;2022-07-22T07:15:46;100793.00;;;22.90
11424;BMP180;5768;51.476;7.210;2022-07-22T07:18:48;100794.00;;;22.80
11424;BMP180;5768;51.476;7.210;2022-07-22T07:21:50;100783.00;;;22.70
11424;BMP180;5768;51.476;7.210;2022-07-22T07:24:53;100782.00;;;22.70
11424;BMP180;5768;51.476;7.210;2022-07-22T07:27:57;100781.00;;;22.70
11424;BMP180;5768;51.476;7.210;2022-07-22T07:30:59;100781.00;;;22.80
11424;BMP180;5768;51.476;7.210;2022-07-22T07:34:02;100788.00;;;22.80
11424;BMP180;5768;51.476;7.210;2022-07-22T07:37:04;100783.00;;;23.00
11424;BMP180;5768;51.476;7.210;2022-07-22T07:40:08;100785.00;;;23.10
11424;BMP180;5768;51.476;7.210;2022-07-22T07:43:12;100783.00;;;23.10
11424;BMP180;5768;51.476;7.210;2022-07-22T07:46:14;100779.00;;;23.10
11424;BMP180;5768;51.476;7.210;2022-07-22T07:49:17;100775.00;;;23.20
11424;BMP180;5768;51.476;7.210;2022-07-22T07:52:19;100778.00;;;23.20
11424;BMP180;5768;51.476;7.210;2022-07-22T07:55:21;100777.00;;;23.20
11424;BMP180;5768;51.476;7.210;2022-07-22T07:58:25;100780.00;;;23.20
11424;BMP180;5768;51.476;7.210;2022-07-22T08:01:30;100784.00;;;23.30
11424;BMP180;5768;51.476;7.210;2022-07-22T08:04:35;100781.00;;;23.50
11424;BMP180;5768;51.476;7.210;2022-07-22T08:07:38;100779.00;;;23.50
11424;BMP180;5768;51.476;7.210;2022-07-22T08:10:41;100779.00;;;23.50
11424;BMP180;5768;51.476;7.210;2022-07-22T08:13:46;100778.00;;;23.50
11424;BMP180;5768;51.476;7.210;2022-07-22T08:16:49;100775.00;;;23.50
11424;BMP180;5768;51.476;7.210;2022-07-22T08:19:51;100773.00;;;23.70
11424;BMP180;5768;51.476;7.210;2022-07-22T08:22:54;100776.00;;;23.70
11424;BMP180;5768;51.476;7.210;2022-07-22T08:25:56;100768.00;;;23.80
11424;BMP180;5768;51.476;7.210;2022-07-22T08:28:59;100774.00;;;23.80
11424;BMP180;5768;51.476;7.210;2022-07-22T08:32:02;100778.00;;;23.80
11424;BMP180;5768;51.476;7.210;2022-07-22T08:35:05;100781.00;;;23.90
11424;BMP180;5768;51.476;7.210;2022-07-22T08:38:08;100775.00;;;23.90
11424;BMP180;5768;51.476;7.210;2022-07-22T08:41:12;100774.00;;;23.90
11424;BMP180;5768;51.476;7.210;2022-07-22T08:44:16;100771.00;;;24.00
11424;BMP180;5768;51.476;7.210;2022-07-22T08:47:21;100775.00;;;24.10
11424;BMP180;5768;51.476;7.210;2022-07-22T08:50:23;100773.00;;;24.10
11424;BMP180;5768;51.476;7.210;2022-07-22T08:53:26;100779.00;;;24.10
11424;BMP180;5768;51.476;7.210;2022-07-22T08:56:28;100781.00;;;24.10
11424;BMP180;5768;51.476;7.210;2022-07-22T08:59:32;100778.00;;;24.10
11424;BMP180;5768;51.476;7.210;2022-07-22T09:02:38;100787.00;;;24.10
11424;BMP180;5768;51.476;7.210;2022-07-22T09:05:43;100786.00;;;24.10
11424;BMP180;5768;51.476;7.210;2022-07-22T09:08:54;100797.00;;;23.90
11424;BMP180;5768;51.476;7.210;2022-07-22T09:12:05;100791.00;;;23.90
11424;BMP180;5768;51.476;7.210;2022-07-22T09:15:09;100791.00;;;23.70
11424;BMP180;5768;51.476;7.210;2022-07-22T09:18:11;100793.00;;;23.60
11424;BMP180;5768;51.476;7.210;2022-07-22T09:21:14;100797.00;;;23.60
11424;BMP180;5768;51.476;7.210;2022-07-22T09:24:28;100790.00;;;23.50
11424;BMP180;5768;51.476;7.210;2022-07-22T09:27:31;100782.00;;;23.60
11424;BMP180;5768;51.476;7.210;2022-07-22T09:30:37;100788.00;;;23.70
11424;BMP180;5768;51.476;7.210;2022-07-22T09:33:40;100786.00;;;24.00
11424;BMP180;5768;51.476;7.210;2022-07-22T09:36:57;100785.00;;;24.20
11424;BMP180;5768;51.476;7.210;2022-07-22T09:40:12;100788.00;;;24.40
11424;BMP180;5768;51.476;7.210;2022-07-22T09:43:18;100788.00;;;24.50
11424;BMP180;5768;51.476;7.210;2022-07-22T09:46:35;100791.00;;;24.60
11424;BMP180;5768;51.476;7.210;2022-07-22T09:49:38;100799.00;;;24.70
11424;BMP180;5768;51.476;7.210;2022-07-22T09:52:41;100784.00;;;24.70
11424;BMP180;5768;51.476;7.210;2022-07-22T09:55:44;100789.00;;;24.80
11424;BMP180;5768;51.476;7.210;2022-07-22T09:58:46;100792.00;;;24.90
11424;BMP180;5768;51.476;7.210;2022-07-22T10:01:54;100793.00;;;24.90
11424;BMP180;5768;51.476;7.210;2022-07-22T10:05:00;100795.00;;;25.00
11424;BMP180;5768;51.476;7.210;2022-07-22T10:08:04;100785.00;;;25.10
11424;BMP180;5768;51.476;7.210;2022-07-22T10:11:08;100781.00;;;25.20
11424;BMP180;5768;51.476;7.210;2022-07-22T10:14:10;100789.00;;;25.30
11424;BMP180;5768;51.476;7.210;2022-07-22T10:17:18;100781.00;;;25.40
11424;BMP180;5768;51.476;7.210;2022-07-22T10:20:23;100784.00;;;25.40
11424;BMP180;5768;51.476;7.210;2022-07-22T10:23:26;100787.00;;;25.60
11424;BMP180;5768;51.476;7.210;2022-07-22T10:26:54;100773.00;;;25.50
11424;BMP180;5768;51.476;7.210;2022-07-22T10:30:00;100781.00;;;25.50
11424;BMP180;5768;51.476;7.210;2022-07-22T10:33:10;100774.00;;;25.50
11424;BMP180;5768;51.476;7.210;2022-07-22T10:36:13;100772.00;;;25.50
11424;BMP180;5768;51.476;7.210;2022-07-22T10:39:15;100763.00;;;25.60
11424;BMP180;5768;51.476;7.210;2022-07-22T10:42:18;100763.00;;;25.70
11424;BMP180;5768;51.476;7.210;2022-07-22T10:45:22;100758.00;;;25.60
11424;BMP180;5768;51.476;7.210;2022-07-22T10:48:45;100761.00;;;25.60
11424;BMP180;5768;51.476;7.210;2022-07-22T10:52:12;100747.00;;;25.60
11424;BMP180;5768;51.476;7.210;2022-07-22T10:55:19;100745.00;;;25.70
11424;BMP180;5768;51.476;7.210;2022-07-22T10:58:52;100744.00;;;25.70
11424;BMP180;5768;51.476;7.210;2022-07-22T11:01:56;100733.00;;;25.80
11424;BMP180;5768;51.476;7.210;2022-07-22T11:05:01;100732.00;;;26.10
11424;BMP180;5768;51.476;7.210;2022-07-22T11:08:09;100743.00;;;26.20
11424;BMP180;5768;51.476;7.210;2022-07-22T11:11:11;100739.00;;;26.20
11424;BMP180;5768;51.476;7.210;2022-07-22T11:14:17;100743.00;;;26.20
11424;BMP180;5768;51.476;7.210;2022-07-22T11:17:20;100734.00;;;26.20
11424;BMP180;5768;51.476;7.210;2022-07-22T11:20:27;100741.00;;;26.30
11424;BMP180;5768;51.476;7.210;2022-07-22T11:23:29;100754.00;;;26.60
11424;BMP180;5768;51.476;7.210;2022-07-22T11:26:40;100749.00;;;26.90
11424;BMP180;5768;51.476;7.210;2022-07-22T11:29:47;100744.00;;;26.90
11424;BMP180;5768;51.476;7.210;2022-07-22T11:32:50;100752.00;;;26.80
11424;BMP180;5768;51.476;7.210;2022-07-22T11:36:03;100742.00;;;26.60
11424;BMP180;5768;51.476;7.210;2022-07-22T11:39:08;100749.00;;;26.50
11424;BMP180;5768;51.476;7.210;2022-07-22T11:42:12;100746.00;;;26.50
11424;BMP180;5768;51.476;7.210;2022-07-22T11:45:14;100741.00;;;26.50
11424;BMP180;5768;51.476;7.210;2022-07-22T11:48:23;100749.00;;;26.60
11424;BMP180;5768;51.476;7.210;2022-07-22T11:51:31;100740.00;;;26.60
11424;BMP180;5768;51.476;7.210;2022-07-22T11:54:34;100740.00;;;26.80
11424;BMP180;5768;51.476;7.210;2022-07-22T11:57:47;100734.00;;;27.00
11424;BMP180;5768;51.476;7.210;2022-07-22T12:00:49;100738.00;;;27.20
11424;BMP180;5768;51.476;7.210;2022-07-22T12:03:55;100727.00;;;27.80
11424;BMP180;5768;51.476;7.210;2022-07-22T12:07:01;100717.00;;;28.40
11424;BMP180;5768;51.476;7.210;2022-07-22T12:10:05;100723.00;;;28.80
11424;BMP180;5768;51.476;7.210;2022-07-22T12:13:10;100726.00;;;29.20
11424;BMP180;5768;51.476;7.210;2022-07-22T12:16:26;100721.00;;;29.50
11424;BMP180;5768;51.476;7.210;2022-07-22T12:19:32;100716.00;;;29.80
11424;BMP180;5768;51.476;7.210;2022-07-22T12:22:45;100705.00;;;29.80
11424;BMP180;5768;51.476;7.210;2022-07-22T12:25:53;100713.00;;;29.70
11424;BMP180;5768;51.476;7.210;2022-07-22T12:29:19;100710.00;;;29.60
11424;BMP180;5768;51.476;7.210;2022-07-22T12:32:27;100711.00;;;29.50
11424;BMP180;5768;51.476;7.210;2022-07-22T12:35:29;100706.00;;;29.40
11424;BMP180;5768;51.476;7.210;2022-07-22T12:38:33;100699.00;;;29.30
11424;BMP180;5768;51.476;7.210;2022-07-22T12:41:46;100695.00;;;29.30
11424;BMP180;5768;51.476;7.210;2022-07-22T12:45:00;100697.00;;;29.90
11424;BMP180;5768;51.476;7.210;2022-07-22T12:48:08;100702.00;;;30.40
11424;BMP180;5768;51.476;7.210;2022-07-22T12:51:11;100684.00;;;30.90
11424;BMP180;5768;51.476;7.210;2022-07-22T12:54:14;100692.00;;;31.50
11424;BMP180;5768;51.476;7.210;2022-07-22T12:57:17;100689.00;;;31.40
11424;BMP180;5768;51.476;7.210;2022-07-22T13:00:22;100695.00;;;31.50
11424;BMP180;5768;51.476;7.210;2022-07-22T13:03:26;100688.00;;;31.50
11424;BMP180;5768;51.476;7.210;2022-07-22T13:06:28;100685.00;;;31.70
11424;BMP180;5768;51.476;7.210;2022-07-22T13:09:32;100681.00;;;32.30
11424;BMP180;5768;51.476;7.210;2022-07-22T13:12:34;100676.00;;;32.60
11424;BMP180;5768;51.476;7.210;2022-07-22T13:15:37;100680.00;;;32.50
11424;BMP180;5768;51.476;7.210;2022-07-22T13:18:40;100681.00;;;32.20
11424;BMP180;5768;51.476;7.210;2022-07-22T13:21:42;100666.00;;;32.00
11424;BMP180;5768;51.476;7.210;2022-07-22T13:24:47;100657.00;;;31.80
11424;BMP180;5768;51.476;7.210;2022-07-22T13:27:49;100661.00;;;31.60
11424;BMP180;5768;51.476;7.210;2022-07-22T13:30:52;100652.00;;;31.30
11424;BMP180;5768;51.476;7.210;2022-07-22T13:33:54;100660.00;;;31.40
11424;BMP180;5768;51.476;7.210;2022-07-22T13:36:56;100658.00;;;31.70
11424;BMP180;5768;51.476;7.210;2022-07-22T13:40:00;100658.00;;;32.40
11424;BMP180;5768;51.476;7.210;2022-07-22T13:43:05;100655.00;;;34.00
11424;BMP180;5768;51.476;7.210;2022-07-22T13:46:07;100663.00;;;35.50
11424;BMP180;5768;51.476;7.210;2022-07-22T13:49:10;100666.00;;;36.60
11424;BMP180;5768;51.476;7.210;2022-07-22T13:52:13;100660.00;;;37.40
11424;BMP180;5768;51.476;7.210;2022-07-22T13:55:17;100663.00;;;37.80
11424;BMP180;5768;51.476;7.210;2022-07-22T13:58:19;100663.00;;;38.20
11424;BMP180;5768;51.476;7.210;2022-07-22T14:01:21;100667.00;;;37.80
11424;BMP180;5768;51.476;7.210;2022-07-22T14:04:24;100659.00;;;36.60
11424;BMP180;5768;51.476;7.210;2022-07-22T14:07:27;100652.00;;;35.50
11424;BMP180;5768;51.476;7.210;2022-07-22T14:10:30;100653.00;;;34.60
11424;BMP180;5768;51.476;7.210;2022-07-22T14:13:33;100654.00;;;34.20
11424;BMP180;5768;51.476;7.210;2022-07-22T14:16:37;100655.00;;;34.30
11424;BMP180;5768;51.476;7.210;2022-07-22T14:19:39;100646.00;;;34.50
11424;BMP180;5768;51.476;7.210;2022-07-22T14:22:42;100645.00;;;34.40
11424;BMP180;5768;51.476;7.210;2022-07-22T14:25:45;100643.00;;;34.30
11424;BMP180;5768;51.476;7.210;2022-07-22T14:28:48;100645.00;;;34.50
11424;BMP180;5768;51.476;7.210;2022-07-22T14:31:50;100653.00;;;34.80
11424;BMP180;5768;51.476;7.210;2022-07-22T14:34:52;100645.00;;;34.60
11424;BMP180;5768;51.476;7.210;2022-07-22T14:37:58;100653.00;;;34.30
11424;BMP180;5768;51.476;7.210;2022-07-22T14:41:03;100654.00;;;33.90
11424;BMP180;5768;51.476;7.210;2022-07-22T14:44:06;100642.00;;;33.90
11424;BMP180;5768;51.476;7.210;2022-07-22T14:47:10;100647.00;;;34.00
11424;BMP180;5768;51.476;7.210;2022-07-22T14:50:12;100635.00;;;34.50
11424;BMP180;5768;51.476;7.210;2022-07-22T14:53:15;100628.00;;;35.00
11424;BMP180;5768;51.476;7.210;2022-07-22T14:56:19;100630.00;;;35.40
11424;BMP180;5768;51.476;7.210;2022-07-22T14:59:22;100636.00;;;35.50
11424;BMP180;5768;51.476;7.210;2022-07-22T15:02:26;100632.00;;;35.90
11424;BMP180;5768;51.476;7.210;2022-07-22T15:05:29;100639.00;;;36.60
11424;BMP180;5768;51.476;7.210;2022-07-22T15:08:31;100637.00;;;37.20
11424;BMP180;5768;51.476;7.210;2022-07-22T15:11:35;100623.00;;;38.50
11424;BMP180;5768;51.476;7.210;2022-07-22T15:14:37;100625.00;;;39.10
11424;BMP180;5768;51.476;7.210;2022-07-22T15:17:40;100632.00;;;38.90
11424;BMP180;5768;51.476;7.210;2022-07-22T15:20:44;100625.00;;;37.70
11424;BMP180;5768;51.476;7.210;2022-07-22T15:23:46;100630.00;;;37.10
11424;BMP180;5768;51.476;7.210;2022-07-22T15:26:51;100633.00;;;37.10
11424;BMP180;5768;51.476;7.210;2022-07-22T15:29:54;100626.00;;;36.70
11424;BMP180;5768;51.476;7.210;2022-07-22T15:32:56;100626.00;;;36.20
11424;BMP180;5768;51.476;7.210;2022-07-22T15:35:58;100621.00;;;35.70
11424;BMP180;5768;51.476;7.210;2022-07-22T15:39:01;100613.00;;;35.50
11424;BMP180;5768;51.476;7.210;2022-07-22T15:42:05;100610.00;;;35.80
11424;BMP180;5768;51.476;7.210;2022-07-22T15:45:10;100613.00;;;36.60
11424;BMP180;5768;51.476;7.210;2022-07-22T15:48:12;100608.00;;;36.70
11424;BMP180;5768;51.476;7.210;2022-07-22T15:51:14;100615.00;;;35.80
11424;BMP180;5768;51.476;7.210;2022-07-22T15:54:17;100611.00;;;34.70
11424;BMP180;5768;51.476;7.210;2022-07-22T15:57:21;100598.00;;;33.70
11424;BMP180;5768;51.476;7.210;2022-07-22T16:00:49;100591.00;;;33.20
11424;BMP180;5768;51.476;7.210;2022-07-22T16:03:51;100592.00;;;33.00
11424;BMP180;5768;51.476;7.210;2022-07-22T16:06:54;100591.00;;;32.60
11424;BMP180;5768;51.476;7.210;2022-07-22T16:09:56;100594.00;;;32.40
11424;BMP180;5768;51.476;7.210;2022-07-22T16:13:00;100577.00;;;32.60
11424;BMP180;5768;51.476;7.210;2022-07-22T16:16:03;100571.00;;;32.80
11424;BMP180;5768;51.476;7.210;2022-07-22T16:19:05;100580.00;;;33.00
11424;BMP180;5768;51.476;7.210;2022-07-22T16:22:07;100574.00;;;33.10
11424;BMP180;5768;51.476;7.210;2022-07-22T16:25:10;100575.00;;;33.00
11424;BMP180;5768;51.476;7.210;2022-07-22T16:28:14;100567.00;;;33.30
11424;BMP180;5768;51.476;7.210;2022-07-22T16:31:17;100551.00;;;34.80
11424;BMP180;5768;51.476;7.210;2022-07-22T16:34:19;100540.00;;;37.30
11424;BMP180;5768;51.476;7.210;2022-07-22T16:37:21;100544.00;;;39.00
11424;BMP180;5768;51.476;7.210;2022-07-22T16:40:23;100549.00;;;38.60
11424;BMP180;5768;51.476;7.210;2022-07-22T16:43:27;100539.00;;;37.10
11424;BMP180;5768;51.476;7.210;2022-07-22T16:46:30;100538.00;;;35.70
11424;BMP180;5768;51.476;7.210;2022-07-22T16:49:32;100537.00;;;34.70
11424;BMP180;5768;51.476;7.210;2022-07-22T16:52:35;100540.00;;;33.70
11424;BMP180;5768;51.476;7.210;2022-07-22T16:55:37;100531.00;;;32.80
11424;BMP180;5768;51.476;7.210;2022-07-22T16:58:41;100533.00;;;32.20
11424;BMP180;5768;51.476;7.210;2022-07-22T17:01:44;100534.00;;;31.60
11424;BMP180;5768;51.476;7.210;2022-07-22T17:04:46;100540.00;;;31.20
11424;BMP180;5768;51.476;7.210;2022-07-22T17:07:48;100540.00;;;30.80
11424;BMP180;5768;51.476;7.210;2022-07-22T17:10:51;100540.00;;;30.50
11424;BMP180;5768;51.476;7.210;2022-07-22T17:13:54;100547.00;;;30.40
11424;BMP180;5768;51.476;7.210;2022-07-22T17:16:57;100558.00;;;30.30
11424;BMP180;5768;51.476;7.210;2022-07-22T17:19:59;100559.00;;;30.40
11424;BMP180;5768;51.476;7.210;2022-07-22T17:23:02;100559.00;;;30.50
11424;BMP180;5768;51.476;7.210;2022-07-22T17:26:05;100568.00;;;30.40
11424;BMP180;5768;51.476;7.210;2022-07-22T17:29:08;100564.00;;;30.20
11424;BMP180;5768;51.476;7.210;2022-07-22T17:32:11;100560.00;;;30.00
11424;BMP180;5768;51.476;7.210;2022-07-22T17:35:13;100558.00;;;29.90
11424;BMP180;5768;51.476;7.210;2022-07-22T17:38:15;100551.00;;;29.80